sensor_id;sensor_type;location;lat;lon;timestamp;pressure;altitude;pressure_sealevel;temperature;humidity
69982;BME280;57319;56.274;43.980;2024-02-14T00:00:18;101033.47;;;-16.49;87.92
69982;BME280;57319;56.274;43.980;2024-02-14T00:02:44;101036.63;;;-16.50;88.21
69982;BME280;57319;56.274;43.980;2024-02-14T00:05:10;101037.69;;;-16.34;88.49
69982;BME280;57319;56.274;43.980;2024-02-14T00:07:37;101038.75;;;-16.53;88.06
69982;BME280;57319;56.274;43.980;2024-02-14T00:10:03;101039.28;;;-16.49;88.50
69982;BME280;57319;56.274;43.980;2024-02-14T00:12:36;101042.44;;;-16.57;88.51
69982;BME280;57319;56.274;43.980;2024-02-14T00:15:05;101043.16;;;-16.51;88.22
69982;BME280;57319;56.274;43.980;2024-02-14T00:17:33;101044.56;;;-16.46;88.18
69982;BME280;57319;56.274;43.980;2024-02-14T00:20:01;101047.38;;;-16.50;88.39
69982;BME280;57319;56.274;43.980;2024-02-14T00:22:32;101050.53;;;-16.80;87.94
69982;BME280;57319;56.274;43.980;2024-02-14T00:24:58;101058.44;;;-17.11;87.98
69982;BME280;57319;56.274;43.980;2024-02-14T00:27:23;101053.88;;;-16.79;88.21
69982;BME280;57319;56.274;43.980;2024-02-14T00:29:51;101060.03;;;-16.83;87.82
69982;BME280;57319;56.274;43.980;2024-02-14T00:32:17;101061.81;;;-16.96;88.42
69982;BME280;57319;56.274;43.980;2024-02-14T00:34:52;101064.09;;;-16.98;87.94
69982;BME280;57319;56.274;43.980;2024-02-14T00:37:19;101064.81;;;-16.70;88.29
69982;BME280;57319;56.274;43.980;2024-02-14T00:39:45;101061.09;;;-16.66;88.01
69982;BME280;57319;56.274;43.980;2024-02-14T00:42:11;101060.22;;;-16.96;88.38
69982;BME280;57319;56.274;43.980;2024-02-14T00:44:36;101068.31;;;-16.82;88.48
69982;BME280;57319;56.274;43.980;2024-02-14T00:47:02;101073.75;;;-17.07;88.31
69982;BME280;57319;56.274;43.980;2024-02-14T00:49:28;101071.19;;;-17.28;88.47
69982;BME280;57319;56.274;43.980;2024-02-14T00:51:54;101082.91;;;-17.05;88.49
69982;BME280;57319;56.274;43.980;2024-02-14T00:54:20;101078.50;;;-17.01;87.49
69982;BME280;57319;56.274;43.980;2024-02-14T00:56:46;101073.56;;;-17.15;87.33
69982;BME280;57319;56.274;43.980;2024-02-14T00:59:11;101077.34;;;-17.39;87.15
69982;BME280;57319;56.274;43.980;2024-02-14T01:01:38;101087.47;;;-17.01;87.32
69982;BME280;57319;56.274;43.980;2024-02-14T01:04:04;101083.72;;;-17.27;87.99
69982;BME280;57319;56.274;43.980;2024-02-14T01:06:30;101079.19;;;-17.09;87.70
69982;BME280;57319;56.274;43.980;2024-02-14T01:08:56;101087.50;;;-16.94;87.35
69982;BME280;57319;56.274;43.980;2024-02-14T01:11:22;101087.06;;;-17.19;86.94
69982;BME280;57319;56.274;43.980;2024-02-14T01:13:47;101084.06;;;-17.31;87.43
69982;BME280;57319;56.274;43.980;2024-02-14T01:16:13;101093.03;;;-17.24;87.70
69982;BME280;57319;56.274;43.980;2024-02-14T01:18:40;101083.91;;;-17.18;87.26
69982;BME280;57319;56.274;43.980;2024-02-14T01:21:06;101096.16;;;-17.32;86.58
69982;BME280;57319;56.274;43.980;2024-02-14T01:23:32;101092.47;;;-17.36;87.07
69982;BME280;57319;56.274;43.980;2024-02-14T01:25:58;101097.31;;;-17.85;87.39
69982;BME280;57319;56.274;43.980;2024-02-14T01:28:24;101098.88;;;-17.58;86.89
69982;BME280;57319;56.274;43.980;2024-02-14T01:30:51;101098.13;;;-17.64;87.36
69982;BME280;57319;56.274;43.980;2024-02-14T01:33:16;101110.47;;;-17.91;88.19
69982;BME280;57319;56.274;43.980;2024-02-14T01:35:42;101111.53;;;-17.97;88.55
69982;BME280;57319;56.274;43.980;2024-02-14T01:38:08;101113.66;;;-17.85;87.88
69982;BME280;57319;56.274;43.980;2024-02-14T01:40:34;101113.78;;;-17.64;87.57
69982;BME280;57319;56.274;43.980;2024-02-14T01:43:06;101116.59;;;-18.22;88.43
69982;BME280;57319;56.274;43.980;2024-02-14T01:45:32;101120.66;;;-17.88;88.77
69982;BME280;57319;56.274;43.980;2024-02-14T01:48:11;101115.38;;;-17.57;87.68
69982;BME280;57319;56.274;43.980;2024-02-14T01:50:38;101118.56;;;-17.85;87.41
69982;BME280;57319;56.274;43.980;2024-02-14T01:53:06;101119.88;;;-18.09;87.30
69982;BME280;57319;56.274;43.980;2024-02-14T01:55:34;101118.91;;;-17.97;87.34
69982;BME280;57319;56.274;43.980;2024-02-14T01:58:00;101120.19;;;-17.51;87.50
69982;BME280;57319;56.274;43.980;2024-02-14T02:00:30;101123.09;;;-17.96;87.65
69982;BME280;57319;56.274;43.980;2024-02-14T02:02:57;101128.59;;;-17.91;87.27
69982;BME280;57319;56.274;43.980;2024-02-14T02:05:23;101133.41;;;-17.71;86.80
69982;BME280;57319;56.274;43.980;2024-02-14T02:07:49;101139.13;;;-18.12;86.47
69982;BME280;57319;56.274;43.980;2024-02-14T02:10:15;101143.16;;;-17.85;87.03
69982;BME280;57319;56.274;43.980;2024-02-14T02:13:01;101137.19;;;-18.15;86.79
69982;BME280;57319;56.274;43.980;2024-02-14T02:15:47;101139.97;;;-18.39;87.80
69982;BME280;57319;56.274;43.980;2024-02-14T02:18:32;101145.53;;;-18.00;88.11
69982;BME280;57319;56.274;43.980;2024-02-14T02:21:18;101152.41;;;-17.70;87.12
69982;BME280;57319;56.274;43.980;2024-02-14T02:23:51;101156.84;;;-17.87;86.80
69982;BME280;57319;56.274;43.980;2024-02-14T02:26:17;101158.06;;;-18.38;86.55
69982;BME280;57319;56.274;43.980;2024-02-14T02:29:03;101154.84;;;-18.24;87.17
69982;BME280;57319;56.274;43.980;2024-02-14T02:31:31;101155.97;;;-17.95;86.45
69982;BME280;57319;56.274;43.980;2024-02-14T02:33:56;101161.84;;;-18.28;86.50
69982;BME280;57319;56.274;43.980;2024-02-14T02:36:23;101163.75;;;-18.32;87.44
69982;BME280;57319;56.274;43.980;2024-02-14T02:39:11;101164.09;;;-18.29;87.28
69982;BME280;57319;56.274;43.980;2024-02-14T02:41:57;101170.53;;;-18.70;86.91
69982;BME280;57319;56.274;43.980;2024-02-14T02:44:54;101169.41;;;-18.26;87.38
69982;BME280;57319;56.274;43.980;2024-02-14T02:47:49;101173.28;;;-18.61;86.87
69982;BME280;57319;56.274;43.980;2024-02-14T02:50:37;101176.47;;;-18.02;86.45
69982;BME280;57319;56.274;43.980;2024-02-14T02:53:22;101171.94;;;-18.39;86.43
69982;BME280;57319;56.274;43.980;2024-02-14T02:56:09;101176.16;;;-18.38;86.78
69982;BME280;57319;56.274;43.980;2024-02-14T02:58:34;101174.56;;;-18.37;85.79
69982;BME280;57319;56.274;43.980;2024-02-14T03:01:00;101178.69;;;-18.44;86.03
69982;BME280;57319;56.274;43.980;2024-02-14T03:03:46;101176.59;;;-18.28;86.70
69982;BME280;57319;56.274;43.980;2024-02-14T03:06:31;101180.81;;;-18.27;86.64
69982;BME280;57319;56.274;43.980;2024-02-14T03:09:17;101181.69;;;-18.46;86.31
69982;BME280;57319;56.274;43.980;2024-02-14T03:12:03;101178.03;;;-18.63;85.65
69982;BME280;57319;56.274;43.980;2024-02-14T03:14:49;101175.78;;;-18.94;87.34
69982;BME280;57319;56.274;43.980;2024-02-14T03:17:34;101190.69;;;-18.39;87.00
69982;BME280;57319;56.274;43.980;2024-02-14T03:20:01;101193.31;;;-18.58;85.74
69982;BME280;57319;56.274;43.980;2024-02-14T03:22:31;101194.78;;;-18.33;86.13
69982;BME280;57319;56.274;43.980;2024-02-14T03:24:56;101197.06;;;-18.67;85.97
69982;BME280;57319;56.274;43.980;2024-02-14T03:27:23;101200.50;;;-18.39;86.07
69982;BME280;57319;56.274;43.980;2024-02-14T03:29:52;101200.50;;;-18.92;85.47
69982;BME280;57319;56.274;43.980;2024-02-14T03:32:18;101207.63;;;-18.48;86.09
69982;BME280;57319;56.274;43.980;2024-02-14T03:34:43;101210.75;;;-18.69;87.11
69982;BME280;57319;56.274;43.980;2024-02-14T03:37:10;101215.16;;;-19.00;86.11
69982;BME280;57319;56.274;43.980;2024-02-14T03:39:36;101211.81;;;-18.87;86.32
69982;BME280;57319;56.274;43.980;2024-02-14T03:42:03;101217.94;;;-18.71;87.03
69982;BME280;57319;56.274;43.980;2024-02-14T03:44:33;101222.34;;;-18.81;86.26
69982;BME280;57319;56.274;43.980;2024-02-14T03:46:59;101212.22;;;-18.77;85.34
69982;BME280;57319;56.274;43.980;2024-02-14T03:49:25;101223.59;;;-18.65;86.14
69982;BME280;57319;56.274;43.980;2024-02-14T03:51:51;101221.56;;;-19.20;86.23
69982;BME280;57319;56.274;43.980;2024-02-14T03:54:20;101227.16;;;-19.21;86.52
69982;BME280;57319;56.274;43.980;2024-02-14T03:56:46;101233.53;;;-19.03;86.18
69982;BME280;57319;56.274;43.980;2024-02-14T03:59:12;101234.88;;;-18.92;86.59
69982;BME280;57319;56.274;43.980;2024-02-14T04:01:37;101235.31;;;-18.69;85.60
69982;BME280;57319;56.274;43.980;2024-02-14T04:04:04;101232.66;;;-19.30;85.81
69982;BME280;57319;56.274;43.980;2024-02-14T04:06:31;101231.16;;;-18.96;86.27
69982;BME280;57319;56.274;43.980;2024-02-14T04:08:57;101236.09;;;-18.76;85.97
69982;BME280;57319;56.274;43.980;2024-02-14T04:11:24;101232.34;;;-19.13;85.14
69982;BME280;57319;56.274;43.980;2024-02-14T04:13:50;101248.84;;;-19.24;85.15
69982;BME280;57319;56.274;43.980;2024-02-14T04:16:19;101244.22;;;-19.03;87.02
69982;BME280;57319;56.274;43.980;2024-02-14T04:18:57;101249.31;;;-18.88;85.87
69982;BME280;57319;56.274;43.980;2024-02-14T04:21:22;101255.72;;;-19.09;85.11
69982;BME280;57319;56.274;43.980;2024-02-14T04:23:48;101256.78;;;-19.07;85.17
69982;BME280;57319;56.274;43.980;2024-02-14T04:26:20;101263.94;;;-19.47;85.41
69982;BME280;57319;56.274;43.980;2024-02-14T04:28:47;101263.00;;;-19.16;86.15
69982;BME280;57319;56.274;43.980;2024-02-14T04:31:12;101268.75;;;-19.41;86.22
69982;BME280;57319;56.274;43.980;2024-02-14T04:33:52;101279.56;;;-19.78;86.28
69982;BME280;57319;56.274;43.980;2024-02-14T04:36:19;101282.63;;;-19.60;86.17
69982;BME280;57319;56.274;43.980;2024-02-14T04:38:46;101287.91;;;-19.70;86.42
69982;BME280;57319;56.274;43.980;2024-02-14T04:41:12;101293.38;;;-19.47;86.18
69982;BME280;57319;56.274;43.980;2024-02-14T04:43:40;101293.69;;;-19.13;85.62
69982;BME280;57319;56.274;43.980;2024-02-14T04:46:05;101301.53;;;-19.41;84.93
69982;BME280;57319;56.274;43.980;2024-02-14T04:48:33;101300.78;;;-19.21;84.70
69982;BME280;57319;56.274;43.980;2024-02-14T04:50:59;101314.97;;;-19.44;84.73
69982;BME280;57319;56.274;43.980;2024-02-14T04:53:24;101310.84;;;-19.38;85.06
69982;BME280;57319;56.274;43.980;2024-02-14T04:55:50;101312.88;;;-19.99;85.78
69982;BME280;57319;56.274;43.980;2024-02-14T04:58:16;101315.38;;;-19.73;85.72
69982;BME280;57319;56.274;43.980;2024-02-14T05:00:42;101318.81;;;-19.34;85.14
69982;BME280;57319;56.274;43.980;2024-02-14T05:03:07;101320.44;;;-19.53;84.98
69982;BME280;57319;56.274;43.980;2024-02-14T05:05:35;101328.16;;;-19.62;85.09
69982;BME280;57319;56.274;43.980;2024-02-14T05:08:03;101323.06;;;-19.07;85.20
69982;BME280;57319;56.274;43.980;2024-02-14T05:10:29;101333.72;;;-19.45;85.59
69982;BME280;57319;56.274;43.980;2024-02-14T05:12:56;101333.28;;;-19.61;86.20
69982;BME280;57319;56.274;43.980;2024-02-14T05:15:22;101337.78;;;-19.07;85.72
69982;BME280;57319;56.274;43.980;2024-02-14T05:17:48;101351.16;;;-18.92;84.99
69982;BME280;57319;56.274;43.980;2024-02-14T05:20:15;101346.13;;;-18.86;84.49
69982;BME280;57319;56.274;43.980;2024-02-14T05:22:41;101355.34;;;-19.30;85.81
69982;BME280;57319;56.274;43.980;2024-02-14T05:25:07;101355.97;;;-19.12;87.23
69982;BME280;57319;56.274;43.980;2024-02-14T05:27:49;101355.66;;;-18.82;86.20
69982;BME280;57319;56.274;43.980;2024-02-14T05:30:15;101362.44;;;-18.87;85.32
69982;BME280;57319;56.274;43.980;2024-02-14T05:32:54;101362.72;;;-18.78;84.58
69982;BME280;57319;56.274;43.980;2024-02-14T05:35:22;101367.75;;;-18.71;84.52
69982;BME280;57319;56.274;43.980;2024-02-14T05:37:48;101376.19;;;-18.69;83.93
69982;BME280;57319;56.274;43.980;2024-02-14T05:40:15;101383.84;;;-18.73;83.11
69982;BME280;57319;56.274;43.980;2024-02-14T05:42:41;101392.19;;;-18.78;82.82
69982;BME280;57319;56.274;43.980;2024-02-14T05:45:09;101387.47;;;-18.76;83.55
69982;BME280;57319;56.274;43.980;2024-02-14T05:47:36;101390.34;;;-18.73;83.72
69982;BME280;57319;56.274;43.980;2024-02-14T05:50:02;101391.72;;;-18.75;83.73
69982;BME280;57319;56.274;43.980;2024-02-14T05:52:32;101388.06;;;-18.85;83.36
69982;BME280;57319;56.274;43.980;2024-02-14T05:55:00;101397.44;;;-18.95;84.42
69982;BME280;57319;56.274;43.980;2024-02-14T05:57:26;101402.44;;;-18.75;84.13
69982;BME280;57319;56.274;43.980;2024-02-14T05:59:52;101394.34;;;-18.74;83.25
69982;BME280;57319;56.274;43.980;2024-02-14T06:02:18;101396.13;;;-18.73;83.90
69982;BME280;57319;56.274;43.980;2024-02-14T06:04:44;101397.91;;;-18.72;83.04
69982;BME280;57319;56.274;43.980;2024-02-14T06:07:10;101401.34;;;-18.77;82.76
69982;BME280;57319;56.274;43.980;2024-02-14T06:09:38;101396.63;;;-18.75;82.69
69982;BME280;57319;56.274;43.980;2024-02-14T06:12:06;101409.00;;;-18.81;82.30
69982;BME280;57319;56.274;43.980;2024-02-14T06:14:50;101407.94;;;-18.83;82.13
69982;BME280;57319;56.274;43.980;2024-02-14T06:17:18;101413.44;;;-18.79;82.80
69982;BME280;57319;56.274;43.980;2024-02-14T06:19:43;101410.50;;;-18.76;82.33
69982;BME280;57319;56.274;43.980;2024-02-14T06:22:09;101410.50;;;-18.76;82.38
69982;BME280;57319;56.274;43.980;2024-02-14T06:24:36;101423.63;;;-18.75;82.23
69982;BME280;57319;56.274;43.980;2024-02-14T06:27:01;101422.56;;;-18.77;82.38
69982;BME280;57319;56.274;43.980;2024-02-14T06:29:27;101426.28;;;-18.74;82.14
69982;BME280;57319;56.274;43.980;2024-02-14T06:31:56;101425.50;;;-18.67;82.39
69982;BME280;57319;56.274;43.980;2024-02-14T06:34:22;101424.75;;;-18.61;82.60
69982;BME280;57319;56.274;43.980;2024-02-14T06:36:48;101417.94;;;-18.56;82.06
69982;BME280;57319;56.274;43.980;2024-02-14T06:39:13;101420.50;;;-18.62;81.66
69982;BME280;57319;56.274;43.980;2024-02-14T06:41:39;101424.63;;;-18.55;81.92
69982;BME280;57319;56.274;43.980;2024-02-14T06:44:06;101424.34;;;-18.51;81.80
69982;BME280;57319;56.274;43.980;2024-02-14T06:46:32;101421.22;;;-18.50;81.74
69982;BME280;57319;56.274;43.980;2024-02-14T06:48:57;101425.44;;;-18.49;81.57
69982;BME280;57319;56.274;43.980;2024-02-14T06:51:23;101424.84;;;-18.53;81.10
69982;BME280;57319;56.274;43.980;2024-02-14T06:53:50;101426.22;;;-18.42;81.14
69982;BME280;57319;56.274;43.980;2024-02-14T06:56:16;101427.69;;;-18.37;81.15
69982;BME280;57319;56.274;43.980;2024-02-14T06:58:42;101424.25;;;-18.32;81.47
69982;BME280;57319;56.274;43.980;2024-02-14T07:01:07;101422.38;;;-18.28;80.92
69982;BME280;57319;56.274;43.980;2024-02-14T07:03:33;101429.94;;;-18.26;80.84
69982;BME280;57319;56.274;43.980;2024-02-14T07:05:59;101429.47;;;-18.23;81.16
69982;BME280;57319;56.274;43.980;2024-02-14T07:08:25;101428.97;;;-18.21;80.56
69982;BME280;57319;56.274;43.980;2024-02-14T07:10:56;101429.84;;;-18.20;81.31
69982;BME280;57319;56.274;43.980;2024-02-14T07:13:26;101434.47;;;-18.16;80.45
69982;BME280;57319;56.274;43.980;2024-02-14T07:15:55;101432.13;;;-18.09;80.12
69982;BME280;57319;56.274;43.980;2024-02-14T07:18:20;101430.22;;;-18.04;80.89
69982;BME280;57319;56.274;43.980;2024-02-14T07:20:46;101439.75;;;-18.00;80.25
69982;BME280;57319;56.274;43.980;2024-02-14T07:23:12;101437.97;;;-18.01;80.71
69982;BME280;57319;56.274;43.980;2024-02-14T07:25:37;101435.13;;;-17.91;80.36
69982;BME280;57319;56.274;43.980;2024-02-14T07:28:03;101439.38;;;-17.83;79.86
69982;BME280;57319;56.274;43.980;2024-02-14T07:30:29;101442.63;;;-17.77;80.30
69982;BME280;57319;56.274;43.980;2024-02-14T07:32:55;101447.88;;;-17.81;80.07
69982;BME280;57319;56.274;43.980;2024-02-14T07:35:20;101450.97;;;-17.69;80.16
69982;BME280;57319;56.274;43.980;2024-02-14T07:37:46;101451.75;;;-17.63;79.77
69982;BME280;57319;56.274;43.980;2024-02-14T07:40:13;101444.63;;;-17.54;79.84
69982;BME280;57319;56.274;43.980;2024-02-14T07:42:58;101442.75;;;-17.50;79.49
69982;BME280;57319;56.274;43.980;2024-02-14T07:45:24;101448.25;;;-17.45;79.27
69982;BME280;57319;56.274;43.980;2024-02-14T07:47:50;101445.16;;;-17.37;79.35
69982;BME280;57319;56.274;43.980;2024-02-14T07:50:16;101450.56;;;-17.60;78.78
69982;BME280;57319;56.274;43.980;2024-02-14T07:52:43;101451.09;;;-17.42;78.63
69982;BME280;57319;56.274;43.980;2024-02-14T07:55:09;101458.00;;;-17.19;79.02
69982;BME280;57319;56.274;43.980;2024-02-14T07:57:39;101450.34;;;-17.08;79.04
69982;BME280;57319;56.274;43.980;2024-02-14T08:00:07;101458.44;;;-17.09;78.41
69982;BME280;57319;56.274;43.980;2024-02-14T08:02:36;101452.56;;;-17.17;78.76
69982;BME280;57319;56.274;43.980;2024-02-14T08:05:02;101462.25;;;-17.18;77.90
69982;BME280;57319;56.274;43.980;2024-02-14T08:07:30;101460.72;;;-16.91;78.09
69982;BME280;57319;56.274;43.980;2024-02-14T08:09:56;101465.16;;;-16.81;78.46
69982;BME280;57319;56.274;43.980;2024-02-14T08:12:22;101468.91;;;-16.77;77.80
69982;BME280;57319;56.274;43.980;2024-02-14T08:14:50;101464.94;;;-16.62;78.23
69982;BME280;57319;56.274;43.980;2024-02-14T08:17:15;101467.00;;;-16.73;77.62
69982;BME280;57319;56.274;43.980;2024-02-14T08:19:41;101467.84;;;-16.52;78.30
69982;BME280;57319;56.274;43.980;2024-02-14T08:22:10;101471.50;;;-16.56;77.09
69982;BME280;57319;56.274;43.980;2024-02-14T08:24:38;101466.06;;;-16.53;77.60
69982;BME280;57319;56.274;43.980;2024-02-14T08:27:04;101471.38;;;-16.77;75.72
69982;BME280;57319;56.274;43.980;2024-02-14T08:29:32;101463.97;;;-16.50;76.48
69982;BME280;57319;56.274;43.980;2024-02-14T08:31:58;101462.00;;;-16.25;76.58
69982;BME280;57319;56.274;43.980;2024-02-14T08:34:23;101460.28;;;-16.19;76.44
69982;BME280;57319;56.274;43.980;2024-02-14T08:36:49;101461.91;;;-16.12;76.60
69982;BME280;57319;56.274;43.980;2024-02-14T08:39:15;101460.84;;;-16.14;76.38
69982;BME280;57319;56.274;43.980;2024-02-14T08:41:40;101459.78;;;-16.16;76.32
69982;BME280;57319;56.274;43.980;2024-02-14T08:44:08;101453.41;;;-16.49;74.53
69982;BME280;57319;56.274;43.980;2024-02-14T08:46:35;101461.16;;;-16.18;74.93
69982;BME280;57319;56.274;43.980;2024-02-14T08:49:01;101454.13;;;-15.81;75.36
69982;BME280;57319;56.274;43.980;2024-02-14T08:51:28;101455.22;;;-15.64;76.20
69982;BME280;57319;56.274;43.980;2024-02-14T08:53:54;101460.69;;;-15.53;76.63
69982;BME280;57319;56.274;43.980;2024-02-14T08:56:22;101459.84;;;-15.46;76.44
69982;BME280;57319;56.274;43.980;2024-02-14T08:58:49;101464.44;;;-15.42;76.24
69982;BME280;57319;56.274;43.980;2024-02-14T09:01:18;101464.78;;;-15.39;76.32
69982;BME280;57319;56.274;43.980;2024-02-14T09:03:45;101469.69;;;-16.09;74.02
69982;BME280;57319;56.274;43.980;2024-02-14T09:06:15;101469.72;;;-16.02;75.25
69982;BME280;57319;56.274;43.980;2024-02-14T09:08:41;101475.75;;;-15.93;74.57
69982;BME280;57319;56.274;43.980;2024-02-14T09:11:09;101479.09;;;-15.36;75.70
69982;BME280;57319;56.274;43.980;2024-02-14T09:13:34;101475.97;;;-15.13;75.84
69982;BME280;57319;56.274;43.980;2024-02-14T09:16:03;101465.75;;;-15.02;75.92
69982;BME280;57319;56.274;43.980;2024-02-14T09:18:33;101480.28;;;-15.54;73.05
69982;BME280;57319;56.274;43.980;2024-02-14T09:21:01;101482.88;;;-15.04;74.56
69982;BME280;57319;56.274;43.980;2024-02-14T09:23:28;101477.94;;;-14.82;74.34
69982;BME280;57319;56.274;43.980;2024-02-14T09:25:55;101473.34;;;-14.86;74.00
69982;BME280;57319;56.274;43.980;2024-02-14T09:28:22;101471.78;;;-14.71;74.95
69982;BME280;57319;56.274;43.980;2024-02-14T09:30:48;101476.84;;;-15.06;72.70
69982;BME280;57319;56.274;43.980;2024-02-14T09:33:14;101476.31;;;-15.03;72.26
69982;BME280;57319;56.274;43.980;2024-02-14T09:35:40;101473.84;;;-15.10;71.47
69982;BME280;57319;56.274;43.980;2024-02-14T09:38:13;101469.94;;;-14.58;74.04
69982;BME280;57319;56.274;43.980;2024-02-14T09:40:42;101475.16;;;-14.11;73.25
69982;BME280;57319;56.274;43.980;2024-02-14T09:43:25;101468.97;;;-14.08;71.28
69982;BME280;57319;56.274;43.980;2024-02-14T09:45:53;101474.84;;;-13.62;72.64
69982;BME280;57319;56.274;43.980;2024-02-14T09:48:21;101472.91;;;-13.65;70.98
69982;BME280;57319;56.274;43.980;2024-02-14T09:50:48;101473.19;;;-14.07;69.08
69982;BME280;57319;56.274;43.980;2024-02-14T09:53:15;101478.81;;;-13.18;71.10
69982;BME280;57319;56.274;43.980;2024-02-14T09:55:41;101483.09;;;-14.07;67.84
69982;BME280;57319;56.274;43.980;2024-02-14T09:58:08;101478.50;;;-13.52;68.80
69982;BME280;57319;56.274;43.980;2024-02-14T10:00:35;101481.56;;;-12.85;69.25
69982;BME280;57319;56.274;43.980;2024-02-14T10:03:01;101485.19;;;-12.90;67.81
69982;BME280;57319;56.274;43.980;2024-02-14T10:05:26;101479.59;;;-12.57;67.79
69982;BME280;57319;56.274;43.980;2024-02-14T10:07:56;101481.97;;;-12.66;66.73
69982;BME280;57319;56.274;43.980;2024-02-14T10:10:23;101483.50;;;-13.05;66.35
69982;BME280;57319;56.274;43.980;2024-02-14T10:12:49;101479.03;;;-12.54;66.06
69982;BME280;57319;56.274;43.980;2024-02-14T10:15:15;101475.34;;;-12.03;63.96
69982;BME280;57319;56.274;43.980;2024-02-14T10:17:40;101477.66;;;-12.04;66.69
69982;BME280;57319;56.274;43.980;2024-02-14T10:20:07;101476.44;;;-12.40;62.90
69982;BME280;57319;56.274;43.980;2024-02-14T10:22:39;101473.53;;;-11.31;68.47
69982;BME280;57319;56.274;43.980;2024-02-14T10:25:05;101476.97;;;-11.22;62.72
69982;BME280;57319;56.274;43.980;2024-02-14T10:27:38;101467.25;;;-10.78;65.80
69982;BME280;57319;56.274;43.980;2024-02-14T10:30:08;101472.22;;;-10.27;66.69
69982;BME280;57319;56.274;43.980;2024-02-14T10:32:39;101473.53;;;-10.39;61.13
69982;BME280;57319;56.274;43.980;2024-02-14T10:35:14;101477.06;;;-10.29;59.01
69982;BME280;57319;56.274;43.980;2024-02-14T10:37:41;101470.13;;;-10.58;56.97
69982;BME280;57319;56.274;43.980;2024-02-14T10:40:08;101474.78;;;-9.75;62.72
69982;BME280;57319;56.274;43.980;2024-02-14T10:42:37;101471.72;;;-9.55;56.56
69982;BME280;57319;56.274;43.980;2024-02-14T10:45:04;101475.88;;;-8.09;58.85
69982;BME280;57319;56.274;43.980;2024-02-14T10:47:36;101476.03;;;-8.63;51.12
69982;BME280;57319;56.274;43.980;2024-02-14T10:50:06;101480.03;;;-9.28;52.59
69982;BME280;57319;56.274;43.980;2024-02-14T10:52:40;101469.34;;;-9.44;53.51
69982;BME280;57319;56.274;43.980;2024-02-14T10:55:06;101473.72;;;-9.24;54.66
69982;BME280;57319;56.274;43.980;2024-02-14T10:57:33;101477.34;;;-7.83;56.25
69982;BME280;57319;56.274;43.980;2024-02-14T11:00:02;101481.81;;;-9.62;52.39
69982;BME280;57319;56.274;43.980;2024-02-14T11:02:31;101486.47;;;-8.67;56.48
69982;BME280;57319;56.274;43.980;2024-02-14T11:04:58;101490.91;;;-8.73;51.13
69982;BME280;57319;56.274;43.980;2024-02-14T11:07:29;101495.88;;;-10.57;52.32
69982;BME280;57319;56.274;43.980;2024-02-14T11:10:07;101485.53;;;-10.78;57.13
69982;BME280;57319;56.274;43.980;2024-02-14T11:12:35;101491.88;;;-11.22;58.89
69982;BME280;57319;56.274;43.980;2024-02-14T11:17:42;101496.84;;;-10.13;55.85
69982;BME280;57319;56.274;43.980;2024-02-14T11:20:18;101488.72;;;-9.50;56.65
69982;BME280;57319;56.274;43.980;2024-02-14T11:25:39;101483.69;;;-9.24;59.94
69982;BME280;57319;56.274;43.980;2024-02-14T11:28:14;101493.16;;;-10.43;62.56
69982;BME280;57319;56.274;43.980;2024-02-14T11:30:42;101494.81;;;-10.93;64.76
69982;BME280;57319;56.274;43.980;2024-02-14T11:35:49;101497.84;;;-12.80;62.62
69982;BME280;57319;56.274;43.980;2024-02-14T11:38:17;101501.56;;;-12.37;66.37
69982;BME280;57319;56.274;43.980;2024-02-14T11:40:44;101505.53;;;-13.16;64.09
69982;BME280;57319;56.274;43.980;2024-02-14T11:43:19;101503.41;;;-12.66;67.70
69982;BME280;57319;56.274;43.980;2024-02-14T11:45:58;101500.16;;;-12.58;69.66
69982;BME280;57319;56.274;43.980;2024-02-14T11:48:25;101493.34;;;-12.68;70.02
69982;BME280;57319;56.274;43.980;2024-02-14T11:50:53;101498.00;;;-12.78;70.21
69982;BME280;57319;56.274;43.980;2024-02-14T11:53:19;101497.78;;;-12.72;71.31
69982;BME280;57319;56.274;43.980;2024-02-14T11:55:46;101489.69;;;-12.78;71.30
69982;BME280;57319;56.274;43.980;2024-02-14T11:58:17;101498.06;;;-13.39;68.68
69982;BME280;57319;56.274;43.980;2024-02-14T12:00:44;101502.03;;;-13.25;70.16
69982;BME280;57319;56.274;43.980;2024-02-14T12:03:33;101504.38;;;-13.71;68.28
69982;BME280;57319;56.274;43.980;2024-02-14T12:05:59;101498.72;;;-13.70;68.75
69982;BME280;57319;56.274;43.980;2024-02-14T12:08:28;101499.03;;;-13.53;70.79
69982;BME280;57319;56.274;43.980;2024-02-14T12:10:54;101502.41;;;-13.29;72.28
69982;BME280;57319;56.274;43.980;2024-02-14T12:13:21;101505.56;;;-13.53;71.34
69982;BME280;57319;56.274;43.980;2024-02-14T12:15:49;101514.25;;;-13.57;71.54
69982;BME280;57319;56.274;43.980;2024-02-14T12:18:20;101512.59;;;-13.87;69.78
69982;BME280;57319;56.274;43.980;2024-02-14T12:20:46;101511.06;;;-13.56;72.81
69982;BME280;57319;56.274;43.980;2024-02-14T12:23:18;101516.69;;;-13.50;73.46
69982;BME280;57319;56.274;43.980;2024-02-14T12:25:45;101512.78;;;-13.92;70.40
69982;BME280;57319;56.274;43.980;2024-02-14T12:28:16;101508.59;;;-13.56;74.59
69982;BME280;57319;56.274;43.980;2024-02-14T12:30:50;101518.13;;;-13.52;74.64
69982;BME280;57319;56.274;43.980;2024-02-14T12:33:22;101517.94;;;-13.53;74.98
69982;BME280;57319;56.274;43.980;2024-02-14T12:35:57;101515.03;;;-13.79;73.90
69982;BME280;57319;56.274;43.980;2024-02-14T12:38:23;101527.91;;;-13.68;74.57
69982;BME280;57319;56.274;43.980;2024-02-14T12:40:50;101528.75;;;-14.12;71.92
69982;BME280;57319;56.274;43.980;2024-02-14T12:43:20;101538.38;;;-13.77;74.55
69982;BME280;57319;56.274;43.980;2024-02-14T12:45:46;101538.31;;;-14.29;71.78